createdAt,value
2022-08-25T00:02:59.453Z,8.75
2022-08-25T00:06:05.753Z,8.30
2022-08-25T00:09:11.387Z,8.95
2022-08-25T00:12:14.642Z,8.00
2022-08-25T00:15:22.504Z,8.80
2022-08-25T00:18:26.203Z,8.32
2022-08-25T00:21:31.546Z,8.50
2022-08-25T00:24:36.509Z,8.80
2022-08-25T00:27:39.772Z,8.77
2022-08-25T00:30:43.523Z,8.73
2022-08-25T00:33:48.853Z,9.88
2022-08-25T00:36:53.098Z,8.88
2022-08-25T00:39:58.587Z,9.73
2022-08-25T00:43:06.026Z,9.43
2022-08-25T00:46:21.540Z,9.50
2022-08-25T00:49:29.976Z,8.85
2022-08-25T00:52:39.391Z,9.23
2022-08-25T00:55:46.245Z,9.25
2022-08-25T00:58:49.635Z,9.77
2022-08-25T01:02:00.909Z,9.38
2022-08-25T01:05:05.197Z,9.23
2022-08-25T01:08:10.174Z,9.35
2022-08-25T01:11:18.254Z,9.48
2022-08-25T01:14:29.023Z,9.15
2022-08-25T01:17:36.557Z,9.93
2022-08-25T01:20:40.037Z,8.90
2022-08-25T01:23:44.899Z,9.90
2022-08-25T01:26:48.488Z,9.80
2022-08-25T01:29:51.894Z,9.10
2022-08-25T01:32:55.471Z,9.05
2022-08-25T01:35:58.674Z,9.00
2022-08-25T01:39:04.393Z,9.50
2022-08-25T01:42:21.230Z,9.98
2022-08-25T01:45:24.673Z,9.93
2022-08-25T01:48:28.813Z,10.38
2022-08-25T01:51:43.354Z,10.52
2022-08-25T01:54:48.601Z,10.20
2022-08-25T01:57:51.848Z,9.38
2022-08-25T02:00:57.563Z,10.65
2022-08-25T02:04:01.050Z,10.48
2022-08-25T02:07:08.302Z,9.65
2022-08-25T02:10:14.748Z,9.65
2022-08-25T02:13:18.701Z,9.77
2022-08-25T02:16:25.792Z,9.45
2022-08-25T02:19:31.001Z,9.38
2022-08-25T02:22:39.260Z,9.80
2022-08-25T02:25:48.362Z,9.70
2022-08-25T02:28:52.854Z,9.52
2022-08-25T02:31:56.080Z,10.40
2022-08-25T02:34:59.261Z,11.23
2022-08-25T02:38:02.976Z,10.88
2022-08-25T02:41:13.948Z,10.60
2022-08-25T02:44:17.253Z,10.45
2022-08-25T02:47:40.313Z,11.90
2022-08-25T02:50:48.048Z,11.57
2022-08-25T02:53:51.629Z,10.85
2022-08-25T02:56:56.421Z,10.90
2022-08-25T02:59:59.938Z,12.77
2022-08-25T03:03:03.462Z,11.15
2022-08-25T03:06:07.545Z,10.77
2022-08-25T03:09:11.118Z,11.05
2022-08-25T03:12:17.065Z,11.52
2022-08-25T03:15:20.707Z,11.70
2022-08-25T03:18:24.585Z,11.82
2022-08-25T03:21:30.144Z,11.77
2022-08-25T03:24:33.760Z,12.27
2022-08-25T03:27:37.374Z,11.95
2022-08-25T03:34:29.707Z,11.90
2022-08-25T03:37:33.236Z,11.60
2022-08-25T03:40:37.141Z,12.40
2022-08-25T03:43:40.542Z,12.25
2022-08-25T03:46:46.769Z,13.75
2022-08-25T03:49:51.717Z,13.77
2022-08-25T03:52:56.651Z,13.18
2022-08-25T03:55:59.848Z,13.52
2022-08-25T03:59:03.659Z,13.68
2022-08-25T04:02:07.829Z,13.07
2022-08-25T04:05:12.973Z,12.73
2022-08-25T04:08:19.495Z,11.90
2022-08-25T04:11:24.324Z,12.55
2022-08-25T04:14:28.045Z,11.70
2022-08-25T04:17:31.360Z,11.45
2022-08-25T04:20:35.975Z,10.98
2022-08-25T04:23:41.754Z,12.00
2022-08-25T04:26:48.203Z,10.88
2022-08-25T04:29:51.447Z,11.65
2022-08-25T04:32:54.832Z,10.52
2022-08-25T04:35:59.851Z,11.18
2022-08-25T04:39:04.035Z,11.75
2022-08-25T04:42:07.707Z,11.80
2022-08-25T04:45:11.015Z,11.45
2022-08-25T04:48:15.703Z,12.32
2022-08-25T04:51:25.255Z,11.52
2022-08-25T04:54:28.733Z,12.27
2022-08-25T04:57:41.308Z,11.85
2022-08-25T05:00:44.782Z,10.70
2022-08-25T05:03:53.922Z,11.85
2022-08-25T05:06:58.890Z,12.90
2022-08-25T05:10:02.182Z,12.20
2022-08-25T05:13:05.915Z,12.18
2022-08-25T05:16:12.351Z,12.20
2022-08-25T05:19:15.664Z,10.43
2022-08-25T05:22:20.380Z,12.27
2022-08-25T05:25:26.281Z,11.43
2022-08-25T05:28:29.524Z,11.38
2022-08-25T05:31:36.418Z,12.63
2022-08-25T05:34:42.809Z,11.45
2022-08-25T05:37:47.474Z,11.00
2022-08-25T05:40:53.735Z,12.00
2022-08-25T05:43:57.630Z,12.80
2022-08-25T05:47:03.390Z,12.95
2022-08-25T05:50:07.996Z,13.07
2022-08-25T05:53:12.582Z,12.38
2022-08-25T05:56:16.136Z,13.18
2022-08-25T05:59:19.328Z,14.52
2022-08-25T06:02:40.493Z,13.77
2022-08-25T06:05:43.948Z,13.20
2022-08-25T06:08:48.552Z,13.75
2022-08-25T06:11:54.879Z,13.63
2022-08-25T06:14:58.582Z,13.25
2022-08-25T06:18:03.506Z,11.23
2022-08-25T06:21:12.696Z,11.20
2022-08-25T06:24:17.286Z,11.23
2022-08-25T06:27:20.801Z,12.63
2022-08-25T06:30:28.585Z,12.90
2022-08-25T06:33:33.011Z,11.52
2022-08-25T06:36:36.368Z,13.05
2022-08-25T06:39:43.165Z,12.23
2022-08-25T06:42:49.429Z,13.93
2022-08-25T06:45:54.382Z,13.20
2022-08-25T06:48:58.310Z,14.35
2022-08-25T06:52:01.493Z,14.15
2022-08-25T06:55:07.477Z,12.27
2022-08-25T06:58:12.188Z,13.48
2022-08-25T07:01:20.001Z,13.48
2022-08-25T07:04:24.078Z,14.40
2022-08-25T07:07:43.738Z,13.80
2022-08-25T07:13:52.575Z,14.77
2022-08-25T07:16:57.973Z,13.75
2022-08-25T07:20:05.669Z,15.32
2022-08-25T07:23:08.944Z,15.48
2022-08-25T07:26:40.087Z,12.77
2022-08-25T07:29:43.531Z,12.82
2022-08-25T07:32:46.970Z,13.15
2022-08-25T07:36:06.956Z,12.63
2022-08-25T07:39:14.752Z,11.25
2022-08-25T07:42:19.574Z,11.30
2022-08-25T07:45:30.342Z,12.02
2022-08-25T07:48:33.884Z,11.75
2022-08-25T07:51:38.690Z,10.23
2022-08-25T07:55:02.758Z,11.52
2022-08-25T07:58:09.406Z,12.18
2022-08-25T08:01:16.954Z,11.38
2022-08-25T08:04:20.293Z,10.40
2022-08-25T08:07:42.326Z,11.45
2022-08-25T08:11:03.325Z,9.27
2022-08-25T08:14:09.363Z,9.95
2022-08-25T08:17:13.274Z,9.80
2022-08-25T08:20:17.703Z,10.88
2022-08-25T08:23:28.112Z,11.18
2022-08-25T08:26:55.318Z,11.77
2022-08-25T08:29:56.092Z,10.43
2022-08-25T08:33:09.717Z,9.90
2022-08-25T08:36:15.226Z,10.85
2022-08-25T08:39:20.638Z,10.52
2022-08-25T08:42:42.989Z,10.02
2022-08-25T08:45:54.005Z,9.57
2022-08-25T08:49:02.870Z,9.95
2022-08-25T08:52:09.190Z,8.25
2022-08-25T08:55:24.480Z,9.10
2022-08-25T08:58:36.388Z,8.25
2022-08-25T09:01:46.366Z,9.55
2022-08-25T09:04:57.539Z,9.57
2022-08-25T09:08:06.672Z,9.07
2022-08-25T09:11:18.795Z,8.55
2022-08-25T09:14:44.106Z,8.40
2022-08-25T09:18:00.930Z,9.18
2022-08-25T09:21:15.320Z,8.20
2022-08-25T09:24:37.433Z,7.55
2022-08-25T09:27:47.226Z,7.63
2022-08-25T09:34:33.563Z,7.75
2022-08-25T09:37:36.775Z,8.63
2022-08-25T09:40:42.526Z,7.07
2022-08-25T09:43:54.484Z,7.57
2022-08-25T09:47:02.763Z,8.38
2022-08-25T09:50:18.410Z,7.40
2022-08-25T09:53:23.458Z,7.13
2022-08-25T09:56:28.893Z,6.80
2022-08-25T09:59:35.718Z,7.35
2022-08-25T10:02:39.691Z,7.55
2022-08-25T10:06:07.740Z,7.68
2022-08-25T10:09:29.386Z,7.40
2022-08-25T10:12:42.301Z,7.53
2022-08-25T10:15:48.506Z,8.23
2022-08-25T10:19:08.005Z,6.60
2022-08-25T10:22:24.380Z,7.78
2022-08-25T10:25:30.852Z,7.57
2022-08-25T10:28:42.592Z,6.63
2022-08-25T10:31:51.938Z,7.50
2022-08-25T10:34:56.599Z,8.25
2022-08-25T10:38:10.050Z,7.80
2022-08-25T10:41:36.929Z,8.50
2022-08-25T10:45:09.921Z,8.55
2022-08-25T10:48:38.027Z,7.90
2022-08-25T10:51:55.355Z,7.57
2022-08-25T10:55:09.575Z,8.18
2022-08-25T10:58:24.745Z,6.45
2022-08-25T11:01:46.128Z,8.07
2022-08-25T11:04:56.780Z,6.82
2022-08-25T11:08:07.735Z,7.47
2022-08-25T11:11:21.437Z,6.47
2022-08-25T11:14:30.368Z,7.38
2022-08-25T11:17:44.055Z,7.45
2022-08-25T11:21:02.958Z,7.25
2022-08-25T11:24:24.686Z,7.97
2022-08-25T11:27:38.050Z,6.55
2022-08-25T11:30:44.500Z,6.75
2022-08-25T11:33:51.132Z,6.55
2022-08-25T11:37:00.943Z,6.25
2022-08-25T11:40:28.762Z,6.55
2022-08-25T11:43:53.831Z,6.45
2022-08-25T11:47:21.602Z,6.70
2022-08-25T11:53:37.725Z,6.35
2022-08-25T11:56:42.076Z,6.30
2022-08-25T12:00:11.235Z,6.97
2022-08-25T12:03:57.626Z,6.57
2022-08-25T12:07:23.367Z,7.03
2022-08-25T12:10:48.296Z,7.35
2022-08-25T12:13:52.486Z,7.38
2022-08-25T12:17:17.623Z,6.80
2022-08-25T12:21:01.011Z,5.80
2022-08-25T12:24:13.967Z,7.38
2022-08-25T12:27:27.002Z,6.50
2022-08-25T12:30:43.483Z,5.68
2022-08-25T12:34:03.790Z,7.10
2022-08-25T12:37:14.113Z,6.38
2022-08-25T12:40:26.199Z,6.35
2022-08-25T12:43:37.337Z,6.38
2022-08-25T12:46:40.660Z,6.50
2022-08-25T12:49:45.213Z,5.82
2022-08-25T12:52:48.612Z,6.25
2022-08-25T12:55:55.679Z,5.93
2022-08-25T12:59:13.676Z,6.53
2022-08-25T13:02:52.051Z,6.43
2022-08-25T13:06:23.232Z,5.93
2022-08-25T13:10:02.976Z,5.75
2022-08-25T13:13:11.867Z,5.97
2022-08-25T13:16:19.428Z,5.85
2022-08-25T13:19:23.385Z,6.03
2022-08-25T13:22:28.035Z,6.68
2022-08-25T13:25:50.261Z,5.82
2022-08-25T13:28:59.087Z,7.50
2022-08-25T13:32:09.181Z,6.97
2022-08-25T13:35:19.842Z,6.57
2022-08-25T13:38:24.950Z,6.70
2022-08-25T13:41:29.945Z,6.35
2022-08-25T13:44:42.214Z,6.40
2022-08-25T13:48:05.821Z,5.90
2022-08-25T13:51:18.746Z,6.13
2022-08-25T13:54:30.786Z,6.00
2022-08-25T13:57:35.159Z,6.03
2022-08-25T14:00:47.279Z,6.15
2022-08-25T14:03:51.538Z,5.97
2022-08-25T14:07:09.951Z,6.35
2022-08-25T14:10:33.747Z,6.32
2022-08-25T14:13:38.186Z,5.80
2022-08-25T14:16:50.083Z,6.15
2022-08-25T14:19:58.566Z,4.90
2022-08-25T14:23:05.420Z,6.13
2022-08-25T14:26:15.272Z,6.07
2022-08-25T14:29:19.692Z,5.30
2022-08-25T14:32:23.188Z,6.15
2022-08-25T14:35:26.636Z,6.20
2022-08-25T14:38:30.325Z,6.13
2022-08-25T14:41:36.909Z,6.47
2022-08-25T14:44:40.449Z,6.10
2022-08-25T14:47:45.583Z,6.25
2022-08-25T14:50:59.028Z,6.07
2022-08-25T14:54:06.587Z,5.97
2022-08-25T14:57:11.339Z,5.45
2022-08-25T15:00:14.982Z,6.05
2022-08-25T15:03:26.568Z,5.60
2022-08-25T15:06:32.655Z,5.75
2022-08-25T15:09:34.802Z,5.70
2022-08-25T15:12:47.358Z,5.70
2022-08-25T15:15:52.414Z,5.68
2022-08-25T15:18:56.637Z,5.40
2022-08-25T15:22:00.192Z,4.95
2022-08-25T15:25:04.250Z,5.60
2022-08-25T15:28:09.812Z,5.15
2022-08-25T15:34:28.077Z,5.45
2022-08-25T15:37:31.750Z,4.75
2022-08-25T15:40:37.409Z,5.70
2022-08-25T15:43:43.209Z,5.73
2022-08-25T15:46:49.752Z,5.75
2022-08-25T15:50:03.681Z,5.28
2022-08-25T15:53:10.531Z,5.15
2022-08-25T15:56:17.959Z,5.55
2022-08-25T15:59:30.633Z,5.60
2022-08-25T16:02:40.934Z,6.18
2022-08-25T16:05:48.814Z,5.68
2022-08-25T16:11:58.962Z,5.85
2022-08-25T16:15:07.446Z,5.95
2022-08-25T16:18:11.676Z,5.70
2022-08-25T16:21:24.013Z,5.55
2022-08-25T16:24:38.395Z,5.70
2022-08-25T16:27:42.038Z,5.70
2022-08-25T16:30:52.958Z,5.22
2022-08-25T16:33:58.318Z,5.78
2022-08-25T16:37:03.306Z,5.68
2022-08-25T16:40:10.271Z,6.10
2022-08-25T16:43:14.173Z,6.33
2022-08-25T16:46:18.949Z,5.10
2022-08-25T16:49:24.367Z,5.97
2022-08-25T16:52:46.642Z,5.78
2022-08-25T16:55:50.085Z,6.00
2022-08-25T16:58:55.325Z,5.97
2022-08-25T17:02:00.254Z,6.15
2022-08-25T17:05:03.857Z,6.03
2022-08-25T17:08:26.411Z,5.68
2022-08-25T17:11:31.853Z,6.00
2022-08-25T17:14:35.153Z,5.90
2022-08-25T17:17:38.349Z,5.75
2022-08-25T17:20:44.581Z,6.35
2022-08-25T17:23:51.327Z,5.32
2022-08-25T17:26:55.150Z,5.82
2022-08-25T17:29:58.352Z,5.75
2022-08-25T17:33:01.600Z,6.47
2022-08-25T17:36:05.924Z,5.38
2022-08-25T17:39:12.646Z,5.93
2022-08-25T17:42:15.914Z,5.93
2022-08-25T17:45:19.493Z,5.97
2022-08-25T17:48:22.845Z,7.07
2022-08-25T17:51:31.720Z,6.72
2022-08-25T17:54:36.664Z,6.38
2022-08-25T17:57:39.942Z,6.82
2022-08-25T18:00:45.610Z,6.10
2022-08-25T18:03:49.167Z,6.40
2022-08-25T18:06:52.636Z,6.43
2022-08-25T18:09:57.592Z,6.72
2022-08-25T18:13:02.129Z,6.35
2022-08-25T18:16:07.680Z,6.57
2022-08-25T18:19:30.426Z,6.90
2022-08-25T18:22:51.978Z,6.53
2022-08-25T18:26:00.763Z,6.80
2022-08-25T18:29:05.437Z,5.60
2022-08-25T18:32:09.430Z,6.57
2022-08-25T18:35:15.982Z,6.82
2022-08-25T18:38:42.920Z,6.90
2022-08-25T18:41:47.625Z,7.15
2022-08-25T18:44:51.313Z,7.32
2022-08-25T18:47:56.542Z,6.75
2022-08-25T18:51:01.615Z,6.90
2022-08-25T18:54:05.416Z,6.47
2022-08-25T18:57:09.990Z,6.03
2022-08-25T19:00:17.352Z,6.65
2022-08-25T19:03:23.936Z,6.50
2022-08-25T19:06:27.216Z,6.15
2022-08-25T19:09:30.862Z,5.85
2022-08-25T19:12:36.814Z,6.60
2022-08-25T19:15:41.484Z,7.13
2022-08-25T19:18:45.323Z,6.22
2022-08-25T19:21:48.527Z,6.65
2022-08-25T19:24:54.242Z,6.70
2022-08-25T19:27:59.915Z,6.22
2022-08-25T19:31:06.403Z,7.88
2022-08-25T19:34:13.730Z,6.87
2022-08-25T19:37:19.416Z,6.95
2022-08-25T19:40:24.134Z,5.88
2022-08-25T19:43:32.257Z,6.65
2022-08-25T19:46:38.358Z,6.70
2022-08-25T19:49:41.984Z,6.95
2022-08-25T19:52:45.642Z,7.70
2022-08-25T19:55:51.251Z,7.05
2022-08-25T19:58:56.086Z,5.95
2022-08-25T20:02:01.166Z,7.40
2022-08-25T20:05:06.156Z,7.15
2022-08-25T20:08:09.427Z,7.80
2022-08-25T20:11:12.881Z,7.15
2022-08-25T20:14:17.837Z,8.02
2022-08-25T20:17:24.813Z,7.90
2022-08-25T20:20:32.660Z,7.03
2022-08-25T20:23:55.810Z,7.20
2022-08-25T20:27:03.522Z,7.38
2022-08-25T20:33:13.211Z,7.63
2022-08-25T20:36:17.809Z,7.80
2022-08-25T20:39:22.752Z,8.57
2022-08-25T20:42:25.942Z,8.25
2022-08-25T20:45:31.290Z,7.85
2022-08-25T20:48:34.781Z,7.40
2022-08-25T20:51:38.250Z,8.52
2022-08-25T20:54:43.925Z,7.97
2022-08-25T20:57:52.557Z,7.55
2022-08-25T21:00:57.584Z,8.02
2022-08-25T21:04:01.334Z,8.32
2022-08-25T21:07:08.394Z,7.63
2022-08-25T21:10:14.141Z,8.18
2022-08-25T21:13:18.063Z,7.72
2022-08-25T21:16:23.798Z,8.23
2022-08-25T21:19:30.081Z,8.38
2022-08-25T21:22:35.299Z,7.70
2022-08-25T21:25:40.984Z,8.35
2022-08-25T21:28:47.532Z,8.43
2022-08-25T21:34:28.987Z,9.13
2022-08-25T21:37:32.698Z,9.07
2022-08-25T21:40:37.222Z,8.23
2022-08-25T21:43:40.625Z,8.73
2022-08-25T21:46:53.816Z,9.25
2022-08-25T21:49:59.487Z,9.20
2022-08-25T21:53:03.410Z,9.98
2022-08-25T21:56:08.879Z,8.73
2022-08-25T21:59:14.972Z,9.40
2022-08-25T22:02:22.568Z,9.53
2022-08-25T22:05:27.665Z,9.57
2022-08-25T22:08:31.492Z,9.77
2022-08-25T22:11:36.086Z,10.20
2022-08-25T22:14:40.286Z,9.80
2022-08-25T22:17:43.665Z,10.18
2022-08-25T22:20:48.530Z,10.30
2022-08-25T22:23:51.980Z,10.02
2022-08-25T22:26:55.181Z,10.18
2022-08-25T22:29:59.412Z,11.05
2022-08-25T22:33:03.360Z,10.40
2022-08-25T22:36:16.691Z,10.75
2022-08-25T22:39:19.978Z,10.65
2022-08-25T22:42:25.462Z,10.93
2022-08-25T22:45:31.332Z,11.35
2022-08-25T22:48:37.191Z,10.55
2022-08-25T22:51:44.556Z,9.95
2022-08-25T22:54:50.425Z,10.93
2022-08-25T22:57:54.844Z,10.18
2022-08-25T23:00:59.083Z,10.93
2022-08-25T23:04:03.626Z,11.50
2022-08-25T23:07:08.655Z,11.30
2022-08-25T23:10:14.128Z,12.18
2022-08-25T23:13:19.431Z,11.15
2022-08-25T23:16:38.254Z,11.63
2022-08-25T23:19:41.554Z,11.25
2022-08-25T23:22:45.165Z,11.70
2022-08-25T23:25:54.628Z,12.85
2022-08-25T23:28:57.882Z,11.93
2022-08-25T23:32:01.650Z,11.52
2022-08-25T23:35:05.747Z,11.60
2022-08-25T23:38:11.107Z,11.43
2022-08-25T23:41:17.626Z,11.13
2022-08-25T23:44:23.188Z,12.35
2022-08-25T23:50:32.122Z,11.88
2022-08-25T23:53:36.886Z,12.07
2022-08-25T23:56:42.328Z,11.88
2022-08-25T23:59:48.786Z,11.32
